Startpagina
METAR-TAF:

METAR-TAF

Vliegvelden :

Saint-Denis, Réunion

Aéroport de La Réunion Roland-Garros

breedte: 20-53S, lengte: 055-31E, hoogte: 21 m

Actueel weer

Dit bericht is 34 minuten geleden gemaakt, om 23:30 UTC
Wind 17 kt uit het zuidoosten
Temperatuur 21°C
Vochtigheid 60%
Druk 1020 hPa

METAR: FMEE 272330Z AUTO 13017KT //// R14///// // ///TCU 21/13 Q1020

Tijdstip: 04:04 (00:04 UTC)

Verwachting

Dit bericht is 1 uur en het 4 minuten geleden gemaakt, om 23:00 UTC
Verwachting geldig van 28 om 00 UTC tot 29 om 06 UTC
Wind 12 kt uit het oostzuidoosten
Zicht 10 km of meer
Weinig wolken op 6800 ft
Gebroken wolken op 8200 ft
Tijdelijke
van 28 om 18 UTC tot 29 om 03 UTC
Zicht: 4500 m
regenbuien

TAF: FMEE 272300Z 2800/2906 11012KT 9999 FEW068 BKN082 TEMPO 2818/2903 4500 SHRA

Waarnemingen en weersverwachtingen van meer dan 4000 vliegvelden (METAR en TAF).

De beschikbare stations zijn de gele en rode punten op de kaart.

Ga met uw muis naar het station om de naam te zien.

Klik dan om waarnemingen en weersverwachtingen te zien.

kaart wijzigen: klik op de groene knoppen met een zwart kruis om in te zoomen, op de groene knop met een streepje om uit te zoomen of op de groene pijlen voor aangrenzende kaarten.


METAR-TAF: